Time;durP1;ratioP1;P1;durP2;ratioP2;P2;SDS_P1;SDS_P2;PMS_P1;PMS_P2;Temp;Humidity;BMP_temperature;BMP_pressure;BME280_temperature;BME280_humidity;BME280_pressure;Samples;Min_cycle;Max_cycle;Signal;HPM_P1;HPM_P2
2023/11/04 00:01:57;;;;;;;0.90;0.85;;;6.70;99.90;;;;;;5050251;28;20029;-73
2023/11/04 00:04:23;;;;;;;3.25;1.73;;;6.70;99.90;;;;;;5039737;28;20033;-74
2023/11/04 00:06:49;;;;;;;2.67;1.15;;;6.80;99.90;;;;;;5046506;28;20485;-73
2023/11/04 00:09:14;;;;;;;3.45;1.98;;;6.80;99.90;;;;;;5047779;28;20049;-74
2023/11/04 00:11:40;;;;;;;2.42;1.92;;;6.80;99.90;;;;;;5042867;28;20025;-74
2023/11/04 00:14:06;;;;;;;2.28;1.35;;;6.90;99.90;;;;;;5050203;28;20025;-73
2023/11/04 00:16:32;;;;;;;6.78;2.58;;;6.90;99.90;;;;;;5040073;28;20084;-73
2023/11/04 00:18:58;;;;;;;2.90;1.20;;;6.90;99.90;;;;;;5029396;28;20444;-74
2023/11/04 00:21:23;;;;;;;2.58;1.10;;;6.90;99.90;;;;;;5028539;28;20017;-74
2023/11/04 00:23:49;;;;;;;2.35;1.67;;;6.90;99.90;;;;;;5046783;28;22130;-73
2023/11/04 00:26:15;;;;;;;3.70;1.73;;;6.90;99.90;;;;;;5040399;28;20017;-74
2023/11/04 00:28:41;;;;;;;0.65;0.65;;;6.90;99.90;;;;;;5028579;28;20032;-73
2023/11/04 00:31:07;;;;;;;0.75;0.75;;;6.90;99.90;;;;;;5042078;28;20036;-73
2023/11/04 00:33:33;;;;;;;1.13;0.95;;;6.90;99.90;;;;;;5045934;28;20034;-72
2023/11/04 00:35:59;;;;;;;4.65;1.80;;;6.90;99.90;;;;;;5045186;28;20028;-74
2023/11/04 00:38:25;;;;;;;2.92;1.08;;;6.90;99.90;;;;;;5050187;28;20377;-74
2023/11/04 00:40:51;;;;;;;1.27;0.68;;;6.90;99.90;;;;;;5051339;28;20033;-74
2023/11/04 00:43:16;;;;;;;3.38;1.23;;;6.90;99.90;;;;;;5047646;28;20371;-75
2023/11/04 00:45:42;;;;;;;1.95;1.75;;;6.90;99.90;;;;;;5042520;28;20025;-73
2023/11/04 00:48:08;;;;;;;2.00;1.30;;;6.80;99.90;;;;;;5041384;28;20235;-73
2023/11/04 00:50:33;;;;;;;0.88;0.63;;;6.90;99.90;;;;;;5048602;28;20033;-74
2023/11/04 00:52:59;;;;;;;1.55;1.08;;;6.90;99.90;;;;;;5033215;28;20025;-75
2023/11/04 00:55:25;;;;;;;3.42;1.23;;;6.90;99.90;;;;;;5049691;28;20420;-74
2023/11/04 00:57:51;;;;;;;1.08;0.95;;;6.90;99.90;;;;;;5044687;28;20030;-73
2023/11/04 01:00:23;;;;;;;0.98;0.75;;;6.90;99.90;;;;;;5042245;28;20421;-73
2023/11/04 01:02:49;;;;;;;2.20;0.63;;;6.90;99.90;;;;;;5042433;28;20025;-73
2023/11/04 01:05:15;;;;;;;1.63;1.38;;;6.90;99.90;;;;;;5047609;28;20412;-74
2023/11/04 01:07:40;;;;;;;1.75;1.17;;;6.90;99.90;;;;;;5040127;28;20160;-73
2023/11/04 01:10:07;;;;;;;2.38;1.17;;;6.90;99.90;;;;;;5039299;28;20414;-73
2023/11/04 01:12:32;;;;;;;1.42;1.02;;;6.90;99.90;;;;;;5044592;28;20116;-73
2023/11/04 01:14:58;;;;;;;4.07;0.88;;;6.80;99.90;;;;;;5043578;28;20104;-73
2023/11/04 01:17:24;;;;;;;9.90;1.67;;;6.80;99.90;;;;;;5042919;28;20347;-74
2023/11/04 01:19:50;;;;;;;0.28;0.28;;;6.80;99.90;;;;;;5041916;28;20026;-74
2023/11/04 01:22:15;;;;;;;0.90;0.85;;;6.80;99.90;;;;;;5040652;28;20062;-73
2023/11/04 01:24:41;;;;;;;2.03;1.25;;;6.80;99.90;;;;;;5040769;28;20037;-73
2023/11/04 01:27:09;;;;;;;0.30;0.30;;;6.80;99.90;;;;;;5049169;28;20048;-73
2023/11/04 01:29:34;;;;;;;4.60;1.10;;;6.90;99.90;;;;;;5021576;28;20024;-73
2023/11/04 01:32:00;;;;;;;0.32;0.32;;;6.90;99.90;;;;;;5042514;28;20485;-73
2023/11/04 01:34:26;;;;;;;3.58;1.30;;;6.80;99.90;;;;;;5045152;28;20034;-73
2023/11/04 01:36:52;;;;;;;0.75;0.60;;;6.90;99.90;;;;;;5044138;28;20495;-73
2023/11/04 01:39:17;;;;;;;0.30;0.30;;;6.90;99.90;;;;;;5041925;28;20037;-73
2023/11/04 01:41:43;;;;;;;11.20;1.15;;;6.80;99.90;;;;;;5033824;28;20032;-73
2023/11/04 01:44:09;;;;;;;1.13;1.02;;;6.80;99.90;;;;;;5043372;28;20024;-73
2023/11/04 01:46:35;;;;;;;0.30;0.30;;;6.90;99.90;;;;;;5040971;28;20057;-73
2023/11/04 01:49:01;;;;;;;0.88;0.75;;;6.90;99.90;;;;;;5043271;28;20108;-72
2023/11/04 01:51:29;;;;;;;0.20;0.20;;;6.90;99.90;;;;;;5022739;28;20044;-73
2023/11/04 01:53:55;;;;;;;1.63;0.68;;;6.90;99.90;;;;;;5041579;28;20029;-73
2023/11/04 01:56:33;;;;;;;0.85;0.65;;;6.90;99.90;;;;;;5027912;28;20474;-73
2023/11/04 01:58:59;;;;;;;0.80;0.80;;;6.90;99.90;;;;;;5022373;28;20025;-73
2023/11/04 02:01:26;;;;;;;0.20;0.20;;;6.90;99.90;;;;;;5049532;28;20575;-73
2023/11/04 02:03:53;;;;;;;3.40;0.98;;;6.90;99.90;;;;;;5036224;28;20481;-73
2023/11/04 02:06:20;;;;;;;0.77;0.68;;;7.00;99.90;;;;;;5060804;28;20074;-73
2023/11/04 02:08:46;;;;;;;0.63;0.55;;;7.00;99.90;;;;;;5054715;28;20558;-73
2023/11/04 02:11:11;;;;;;;0.68;0.55;;;7.00;99.90;;;;;;5034347;28;20021;-74
2023/11/04 02:13:37;;;;;;;0.45;0.45;;;7.00;99.90;;;;;;5035262;28;20030;-73
2023/11/04 02:16:05;;;;;;;0.52;0.52;;;7.00;99.90;;;;;;5035799;28;20014;-74
2023/11/04 02:18:31;;;;;;;0.80;0.20;;;7.10;99.90;;;;;;5054150;28;20017;-74
2023/11/04 02:21:00;;;;;;;3.00;0.88;;;7.00;99.90;;;;;;5035933;28;20033;-74
2023/11/04 02:23:29;;;;;;;1.58;1.33;;;7.00;99.90;;;;;;5045441;28;20024;-73
2023/11/04 02:25:54;;;;;;;0.57;0.57;;;7.00;99.90;;;;;;5035844;28;20485;-73
2023/11/04 02:28:23;;;;;;;0.80;0.55;;;7.00;99.90;;;;;;5034864;28;20032;-74
2023/11/04 02:30:49;;;;;;;0.85;0.40;;;7.00;99.90;;;;;;5040091;28;20373;-72
2023/11/04 02:33:15;;;;;;;1.10;0.50;;;7.00;99.90;;;;;;5031560;28;20013;-72
2023/11/04 02:35:42;;;;;;;1.60;0.40;;;7.00;99.90;;;;;;5032332;28;20040;-72
2023/11/04 02:38:07;;;;;;;0.90;0.35;;;7.00;99.90;;;;;;5033397;28;20044;-74
2023/11/04 02:40:33;;;;;;;1.92;1.27;;;7.00;99.90;;;;;;5041970;28;20017;-73
2023/11/04 02:42:59;;;;;;;5.60;0.43;;;7.00;99.90;;;;;;5029581;28;20377;-73
2023/11/04 02:45:25;;;;;;;4.55;1.15;;;7.10;99.90;;;;;;5041828;28;20029;-73
2023/11/04 02:47:51;;;;;;;0.60;0.50;;;7.00;99.90;;;;;;5040429;28;20032;-73
2023/11/04 02:50:17;;;;;;;0.38;0.35;;;7.00;99.90;;;;;;5039349;28;20028;-73
2023/11/04 02:52:43;;;;;;;0.10;0.10;;;7.00;99.90;;;;;;5042426;28;20575;-73
2023/11/04 02:55:09;;;;;;;0.20;0.20;;;7.00;99.90;;;;;;5031960;28;20066;-73
2023/11/04 02:57:35;;;;;;;0.50;0.50;;;7.00;99.90;;;;;;5037067;28;20029;-73
2023/11/04 03:00:01;;;;;;;0.52;0.28;;;7.00;99.90;;;;;;5032605;28;20018;-73
2023/11/04 03:02:26;;;;;;;0.60;0.30;;;7.00;99.90;;;;;;5038776;28;20026;-72
2023/11/04 03:04:55;;;;;;;1.88;0.75;;;7.00;99.90;;;;;;5036787;28;20052;-73
2023/11/04 03:07:21;;;;;;;0.10;0.10;;;7.00;99.90;;;;;;5021206;28;20033;-73
2023/11/04 03:09:47;;;;;;;1.85;0.68;;;7.00;99.90;;;;;;5046308;28;20048;-73
2023/11/04 03:12:13;;;;;;;0.60;0.60;;;7.00;99.90;;;;;;5034722;28;20029;-73
2023/11/04 03:14:43;;;;;;;0.10;0.10;;;7.00;99.90;;;;;;5031445;28;20428;-73
2023/11/04 03:17:09;;;;;;;1.20;0.30;;;7.00;99.90;;;;;;5038656;28;20029;-73
2023/11/04 03:19:35;;;;;;;0.32;0.32;;;7.10;99.90;;;;;;5034897;28;20147;-73
2023/11/04 03:22:01;;;;;;;4.63;1.30;;;7.10;99.90;;;;;;5037292;28;20021;-73
2023/11/04 03:24:26;;;;;;;2.63;0.70;;;7.10;99.90;;;;;;5029399;28;20120;-72
2023/11/04 03:26:53;;;;;;;0.38;0.25;;;7.10;99.90;;;;;;5047878;28;20401;-73
2023/11/04 03:29:19;;;;;;;0.38;0.38;;;7.20;99.90;;;;;;5040938;28;20037;-74
2023/11/04 03:31:45;;;;;;;2.28;1.13;;;7.20;99.90;;;;;;5032882;28;20040;-74
2023/11/04 03:34:10;;;;;;;3.45;0.52;;;7.20;99.90;;;;;;5044365;28;20541;-74
2023/11/04 03:36:36;;;;;;;1.17;0.52;;;7.20;99.90;;;;;;5032929;28;20047;-75
2023/11/04 03:39:02;;;;;;;1.38;0.45;;;7.20;99.90;;;;;;5045789;28;20044;-73
2023/11/04 03:41:28;;;;;;;0.22;0.22;;;7.20;99.90;;;;;;5026499;28;20037;-74
2023/11/04 03:43:54;;;;;;;0.10;0.10;;;7.20;99.90;;;;;;5042093;28;20504;-73
2023/11/04 03:46:19;;;;;;;0.35;0.28;;;7.20;99.90;;;;;;5040657;28;20041;-74
2023/11/04 03:48:47;;;;;;;2.72;0.50;;;7.30;99.90;;;;;;5039286;28;20041;-74
2023/11/04 03:51:12;;;;;;;0.15;0.15;;;7.30;99.90;;;;;;5027952;28;20037;-73
2023/11/04 03:53:39;;;;;;;1.40;0.57;;;7.30;99.90;;;;;;5030908;28;20797;-74
2023/11/04 03:56:05;;;;;;;0.38;0.38;;;7.30;99.90;;;;;;5030569;28;20083;-73
2023/11/04 03:58:31;;;;;;;0.75;0.57;;;7.40;99.90;;;;;;5014500;28;20045;-73
2023/11/04 04:00:56;;;;;;;1.27;0.93;;;7.40;99.90;;;;;;5040057;28;20025;-74
2023/11/04 04:03:22;;;;;;;2.13;0.70;;;7.40;99.90;;;;;;5040897;28;20610;-75
2023/11/04 04:05:48;;;;;;;2.53;0.43;;;7.40;99.90;;;;;;5040048;28;20033;-75
2023/11/04 04:08:15;;;;;;;0.45;0.20;;;7.40;99.90;;;;;;5041170;28;20610;-74
2023/11/04 04:10:41;;;;;;;4.28;0.30;;;7.40;99.90;;;;;;5043374;28;20029;-73
2023/11/04 04:13:08;;;;;;;0.60;0.60;;;7.40;99.90;;;;;;5024827;28;20398;-74
2023/11/04 04:15:33;;;;;;;0.63;0.60;;;7.40;99.90;;;;;;5045428;28;20025;-73
2023/11/04 04:17:59;;;;;;;1.88;0.75;;;7.40;99.90;;;;;;5044967;28;20496;-73
2023/11/04 04:20:26;;;;;;;0.65;0.50;;;7.40;99.90;;;;;;5049207;28;20107;-74
2023/11/04 04:22:52;;;;;;;0.65;0.60;;;7.30;99.90;;;;;;5041299;28;20025;-73
2023/11/04 04:25:18;;;;;;;0.57;0.45;;;7.30;99.90;;;;;;5031544;28;20366;-75
2023/11/04 04:27:44;;;;;;;0.75;0.47;;;7.20;99.90;;;;;;5038420;28;20061;-75
2023/11/04 04:30:10;;;;;;;0.40;0.22;;;7.20;99.90;;;;;;5030070;28;20532;-73
2023/11/04 04:32:35;;;;;;;7.03;0.30;;;7.20;99.90;;;;;;5039927;28;20037;-75
2023/11/04 04:35:01;;;;;;;1.67;0.35;;;7.10;99.90;;;;;;5026412;28;20092;-74
2023/11/04 04:37:30;;;;;;;0.25;0.25;;;7.10;99.90;;;;;;5041571;28;20033;-74
2023/11/04 04:39:56;;;;;;;0.45;0.40;;;7.00;99.90;;;;;;5037246;28;20469;-74
2023/11/04 04:42:22;;;;;;;0.32;0.20;;;7.00;99.90;;;;;;5022868;28;20049;-76
2023/11/04 04:44:47;;;;;;;0.00;0.00;;;7.00;99.90;;;;;;5045296;28;20087;-73
2023/11/04 04:47:13;;;;;;;0.30;0.30;;;6.90;99.90;;;;;;5034345;28;20044;-75
2023/11/04 04:49:40;;;;;;;0.20;0.20;;;6.90;99.90;;;;;;5046424;28;20026;-74
2023/11/04 04:52:06;;;;;;;0.20;0.20;;;6.80;99.90;;;;;;5045759;28;20413;-74
2023/11/04 04:54:32;;;;;;;0.22;0.20;;;6.90;99.90;;;;;;5088446;22;20060;-68
2023/11/04 04:56:58;;;;;;;0.10;0.10;;;6.90;99.90;;;;;;5015444;28;20030;-68
2023/11/04 04:59:24;;;;;;;0.80;0.43;;;6.80;99.90;;;;;;4998836;28;20069;-68
2023/11/04 05:01:50;;;;;;;0.20;0.20;;;6.90;99.90;;;;;;5018912;28;20018;-68
2023/11/04 05:04:16;;;;;;;0.35;0.35;;;6.90;99.90;;;;;;5020734;28;20101;-68
2023/11/04 05:06:42;;;;;;;0.52;0.22;;;6.90;99.90;;;;;;5002533;28;20794;-68
2023/11/04 05:09:08;;;;;;;0.22;0.22;;;7.00;99.90;;;;;;5017303;28;20037;-68
2023/11/04 05:11:33;;;;;;;0.15;0.15;;;7.10;99.90;;;;;;5000905;28;20026;-68
2023/11/04 05:13:59;;;;;;;0.10;0.10;;;7.10;99.90;;;;;;5017992;28;20030;-68
2023/11/04 05:16:25;;;;;;;0.28;0.13;;;7.10;99.90;;;;;;5017732;28;20254;-68
2023/11/04 05:18:51;;;;;;;0.65;0.45;;;7.10;99.90;;;;;;4982364;28;20080;-68
2023/11/04 05:21:17;;;;;;;0.93;0.50;;;7.20;99.90;;;;;;5019884;28;20692;-68
2023/11/04 05:23:46;;;;;;;0.85;0.80;;;7.20;99.90;;;;;;5005722;28;20100;-68
2023/11/04 05:26:13;;;;;;;0.13;0.13;;;7.20;99.90;;;;;;5021140;28;20036;-68
2023/11/04 05:28:40;;;;;;;0.65;0.13;;;7.30;99.90;;;;;;5021595;28;20134;-69
2023/11/04 05:31:10;;;;;;;0.60;0.38;;;7.20;99.90;;;;;;5021718;28;20036;-68
2023/11/04 05:33:37;;;;;;;0.77;0.77;;;7.40;99.90;;;;;;4998341;28;20034;-68
2023/11/04 05:36:03;;;;;;;1.70;0.25;;;7.30;99.90;;;;;;5001791;28;20021;-69
2023/11/04 05:38:29;;;;;;;0.05;0.05;;;7.40;99.90;;;;;;4979937;28;20427;-69
2023/11/04 05:40:55;;;;;;;0.10;0.10;;;7.40;99.90;;;;;;5018422;28;20061;-68
2023/11/04 05:43:20;;;;;;;0.20;0.20;;;7.40;99.90;;;;;;5015382;28;20041;-68
2023/11/04 05:45:47;;;;;;;0.10;0.10;;;7.40;99.90;;;;;;5016313;28;20084;-67
2023/11/04 05:48:13;;;;;;;0.10;0.10;;;7.50;99.90;;;;;;5016884;28;20060;-67
2023/11/04 05:50:38;;;;;;;0.20;0.20;;;7.40;99.90;;;;;;4996320;28;20493;-68
2023/11/04 05:53:05;;;;;;;0.10;0.10;;;7.40;99.90;;;;;;5016779;28;20083;-68
2023/11/04 05:55:31;;;;;;;0.28;0.28;;;7.40;99.90;;;;;;5015037;28;20125;-68
2023/11/04 05:57:58;;;;;;;0.98;0.43;;;7.40;99.90;;;;;;5017873;28;20113;-68
2023/11/04 06:00:24;;;;;;;0.20;0.20;;;7.40;99.90;;;;;;4996033;28;20042;-68
2023/11/04 06:02:50;;;;;;;0.05;0.05;;;7.40;99.90;;;;;;4999763;28;20026;-69
2023/11/04 06:05:16;;;;;;;0.98;0.95;;;7.30;99.90;;;;;;5015623;28;20092;-69
2023/11/04 06:07:42;;;;;;;0.08;0.08;;;7.30;99.90;;;;;;5016347;28;20021;-68
2023/11/04 06:10:08;;;;;;;0.30;0.30;;;7.20;99.90;;;;;;5016316;28;20480;-68
2023/11/04 06:12:37;;;;;;;0.20;0.20;;;7.20;99.90;;;;;;5017061;28;20057;-68
2023/11/04 06:15:03;;;;;;;1.23;0.57;;;7.10;99.90;;;;;;5000391;28;20045;-68
2023/11/04 06:17:29;;;;;;;0.10;0.10;;;7.10;99.90;;;;;;4997984;28;20049;-68
2023/11/04 06:19:57;;;;;;;0.30;0.30;;;7.10;99.90;;;;;;4999824;28;20053;-68
2023/11/04 06:22:23;;;;;;;0.47;0.43;;;7.10;99.90;;;;;;5019903;28;20029;-68
2023/11/04 06:24:52;;;;;;;0.35;0.35;;;7.10;99.90;;;;;;5018243;28;20029;-68
2023/11/04 06:27:18;;;;;;;0.20;0.20;;;7.10;99.90;;;;;;5028254;28;20045;-68
2023/11/04 06:29:44;;;;;;;0.52;0.40;;;7.10;99.90;;;;;;5020735;28;20040;-68
2023/11/04 06:32:10;;;;;;;0.85;0.30;;;7.20;99.90;;;;;;5017822;28;20029;-68
2023/11/04 06:34:36;;;;;;;0.25;0.20;;;7.10;99.90;;;;;;5014403;28;20079;-68
2023/11/04 06:37:02;;;;;;;0.20;0.20;;;7.20;99.90;;;;;;5014684;28;20029;-68
2023/11/04 06:39:29;;;;;;;0.10;0.10;;;7.20;99.90;;;;;;5019973;28;20025;-68
2023/11/04 06:41:54;;;;;;;1.00;0.73;;;7.20;99.90;;;;;;5018039;28;20033;-68
2023/11/04 06:44:20;;;;;;;0.10;0.10;;;7.30;99.90;;;;;;5014613;28;20482;-68
2023/11/04 06:46:52;;;;;;;0.93;0.20;;;7.30;99.90;;;;;;4981450;28;20045;-68
2023/11/04 06:49:19;;;;;;;;;;;7.40;99.90;;;;;;5015110;28;20074;-68
2023/11/04 06:51:44;;;;;;;0.20;0.20;;;7.50;99.90;;;;;;4997661;28;19916;-68
2023/11/04 06:54:13;;;;;;;0.00;0.00;;;7.50;99.90;;;;;;5019398;28;20034;-68
2023/11/04 06:56:39;;;;;;;0.10;0.10;;;7.50;99.90;;;;;;5019345;28;20037;-69
2023/11/04 06:59:08;;;;;;;0.52;0.52;;;7.60;99.90;;;;;;5012655;28;20029;-69
2023/11/04 07:01:34;;;;;;;0.25;0.25;;;7.50;99.90;;;;;;5014512;28;20424;-69
2023/11/04 07:03:59;;;;;;;0.22;0.20;;;7.50;99.90;;;;;;4999674;28;20038;-69
2023/11/04 07:06:25;;;;;;;0.10;0.10;;;7.50;99.90;;;;;;5003502;28;20219;-68
2023/11/04 07:08:54;;;;;;;3.85;0.57;;;7.60;99.90;;;;;;5001656;28;20040;-67
2023/11/04 07:11:20;;;;;;;0.10;0.10;;;7.60;99.90;;;;;;5024646;28;20036;-67
2023/11/04 07:13:46;;;;;;;0.57;0.38;;;7.60;99.90;;;;;;5000985;28;20030;-68
2023/11/04 07:16:13;;;;;;;0.63;0.63;;;7.50;99.90;;;;;;5026086;28;20021;-67
2023/11/04 07:18:43;;;;;;;0.80;0.63;;;7.60;99.90;;;;;;5000564;28;20033;-68
2023/11/04 07:21:09;;;;;;;3.40;0.85;;;7.50;99.90;;;;;;5003161;28;20383;-67
2023/11/04 07:23:35;;;;;;;0.70;0.20;;;7.60;99.90;;;;;;5017923;28;20022;-67
2023/11/04 07:26:01;;;;;;;0.05;0.05;;;7.70;99.90;;;;;;5021403;28;20052;-68
2023/11/04 07:28:34;;;;;;;0.13;0.13;;;7.70;99.90;;;;;;5021258;28;20108;-68
2023/11/04 07:31:00;;;;;;;0.43;0.20;;;7.80;99.90;;;;;;5023579;28;20029;-67
2023/11/04 07:33:26;;;;;;;0.10;0.10;;;7.80;99.90;;;;;;5021619;28;20030;-68
2023/11/04 07:35:52;;;;;;;0.80;0.50;;;7.80;99.90;;;;;;5024733;28;20044;-67
2023/11/04 07:38:18;;;;;;;0.25;0.25;;;7.90;99.90;;;;;;5025912;28;20104;-67
2023/11/04 07:40:46;;;;;;;0.15;0.15;;;7.90;99.90;;;;;;5025345;28;20439;-67
2023/11/04 07:43:12;;;;;;;0.20;0.17;;;7.90;99.90;;;;;;5019025;28;20359;-66
2023/11/04 07:45:38;;;;;;;1.65;0.35;;;8.00;99.90;;;;;;5003750;28;20026;-65
2023/11/04 07:48:05;;;;;;;0.20;0.20;;;8.00;99.90;;;;;;5026747;28;20436;-65
2023/11/04 07:50:31;;;;;;;0.50;0.50;;;8.10;99.90;;;;;;5014574;28;20037;-65
2023/11/04 07:52:56;;;;;;;0.47;0.47;;;8.20;99.90;;;;;;5018158;28;20030;-65
2023/11/04 07:55:22;;;;;;;1.08;0.43;;;8.20;99.90;;;;;;5013181;28;20052;-65
2023/11/04 07:57:48;;;;;;;1.25;0.40;;;8.30;99.90;;;;;;5013517;28;20028;-65
2023/11/04 08:00:15;;;;;;;0.45;0.30;;;8.30;99.90;;;;;;5017584;28;20490;-65
2023/11/04 08:02:41;;;;;;;0.20;0.20;;;8.40;99.90;;;;;;5016690;28;20087;-65
2023/11/04 08:05:10;;;;;;;0.20;0.20;;;8.60;99.90;;;;;;5011149;28;20030;-65
2023/11/04 08:07:37;;;;;;;0.00;0.00;;;8.60;99.90;;;;;;4987913;28;20420;-65
2023/11/04 08:10:04;;;;;;;1.42;0.65;;;8.70;99.90;;;;;;4994115;28;20596;-65
2023/11/04 08:12:31;;;;;;;0.00;0.00;;;8.80;99.90;;;;;;5023051;28;20033;-64
2023/11/04 08:14:57;;;;;;;0.30;0.30;;;8.80;99.90;;;;;;4995441;28;20034;-65
2023/11/04 08:17:22;;;;;;;0.30;0.30;;;8.80;99.90;;;;;;5011532;28;20529;-64
2023/11/04 08:19:48;;;;;;;0.10;0.10;;;8.90;99.90;;;;;;4995034;28;20025;-65
2023/11/04 08:22:14;;;;;;;0.52;0.40;;;8.90;99.90;;;;;;5012926;28;20052;-65
2023/11/04 08:24:42;;;;;;;0.17;0.17;;;9.00;99.90;;;;;;5012877;28;20144;-64
2023/11/04 08:27:08;;;;;;;0.25;0.25;;;9.10;99.90;;;;;;5019733;28;20449;-64
2023/11/04 08:29:34;;;;;;;0.13;0.13;;;9.20;99.90;;;;;;5024636;28;20466;-64
2023/11/04 08:32:00;;;;;;;0.13;0.10;;;9.30;99.90;;;;;;5018227;28;20036;-64
2023/11/04 08:34:26;;;;;;;0.43;0.10;;;9.40;99.90;;;;;;5012352;28;20041;-64
2023/11/04 08:36:52;;;;;;;0.30;0.20;;;9.50;99.90;;;;;;5009170;28;20026;-64
2023/11/04 08:39:18;;;;;;;1.10;0.20;;;9.60;99.90;;;;;;4997838;28;20030;-65
2023/11/04 08:41:44;;;;;;;0.25;0.25;;;9.60;99.90;;;;;;4994846;28;20505;-64
2023/11/04 08:44:11;;;;;;;0.13;0.13;;;9.70;99.90;;;;;;5011625;28;20033;-64
2023/11/04 08:46:37;;;;;;;0.40;0.30;;;9.90;99.90;;;;;;5011687;28;20124;-64
2023/11/04 08:49:05;;;;;;;0.10;0.10;;;9.90;99.90;;;;;;4995300;28;20164;-64
2023/11/04 08:51:30;;;;;;;0.10;0.10;;;9.90;99.90;;;;;;5015233;28;20025;-64
2023/11/04 08:53:56;;;;;;;0.15;0.15;;;9.80;99.90;;;;;;5002812;28;20095;-64
2023/11/04 08:56:22;;;;;;;0.35;0.35;;;9.70;99.90;;;;;;5011693;28;20037;-64
2023/11/04 08:58:48;;;;;;;0.10;0.10;;;9.70;99.90;;;;;;5013536;28;20030;-63
2023/11/04 09:01:14;;;;;;;0.28;0.15;;;9.70;99.90;;;;;;4990700;28;20026;-64
2023/11/04 09:03:40;;;;;;;0.73;0.28;;;9.70;99.90;;;;;;5016313;28;20029;-65
2023/11/04 09:06:07;;;;;;;0.00;0.00;;;9.80;99.90;;;;;;5011766;28;20038;-65
2023/11/04 09:08:33;;;;;;;0.20;0.20;;;9.90;99.90;;;;;;5009930;28;20417;-64
2023/11/04 09:10:59;;;;;;;1.33;0.50;;;9.90;99.90;;;;;;4996226;28;20037;-64
2023/11/04 09:13:26;;;;;;;0.15;0.15;;;10.00;99.90;;;;;;5010998;28;20398;-64
2023/11/04 09:15:53;;;;;;;0.40;0.28;;;10.10;99.90;;;;;;5016292;28;20036;-64
2023/11/04 09:18:19;;;;;;;0.10;0.10;;;10.10;99.90;;;;;;5007530;28;20515;-64
2023/11/04 09:20:45;;;;;;;0.52;0.45;;;10.20;99.90;;;;;;4994366;28;20037;-65
2023/11/04 09:23:12;;;;;;;0.63;0.22;;;10.20;99.90;;;;;;5017206;28;20497;-64
2023/11/04 09:25:37;;;;;;;0.20;0.15;;;10.40;99.90;;;;;;5024595;28;20036;-65
2023/11/04 09:28:03;;;;;;;0.35;0.32;;;10.50;99.90;;;;;;5021515;28;20033;-65
2023/11/04 09:30:29;;;;;;;0.52;0.20;;;10.70;99.90;;;;;;5029868;28;20037;-65
2023/11/04 09:32:55;;;;;;;0.20;0.20;;;10.90;99.90;;;;;;5029965;28;20035;-64
2023/11/04 09:35:21;;;;;;;4.47;0.28;;;11.00;99.90;;;;;;5018198;28;20112;-65
2023/11/04 09:37:46;;;;;;;0.10;0.10;;;11.20;99.90;;;;;;5010602;28;20041;-66
2023/11/04 09:40:13;;;;;;;0.43;0.22;;;11.30;99.90;;;;;;5026466;28;20030;-66
2023/11/04 09:42:41;;;;;;;0.10;0.10;;;11.50;99.90;;;;;;5007670;28;20033;-67
2023/11/04 09:45:08;;;;;;;0.32;0.13;;;11.90;99.90;;;;;;4992528;28;20042;-69
2023/11/04 09:47:34;;;;;;;3.10;0.75;;;11.90;99.90;;;;;;5007591;28;20041;-65
2023/11/04 09:50:00;;;;;;;0.20;0.20;;;11.90;99.90;;;;;;4957655;28;20041;-67
2023/11/04 09:52:32;;;;;;;0.00;0.00;;;12.60;99.90;;;;;;4995217;28;20049;-69
2023/11/04 09:55:01;;;;;;;0.00;0.00;;;12.70;99.90;;;;;;4990195;28;20087;-67
2023/11/04 09:57:28;;;;;;;0.20;0.10;;;12.80;99.90;;;;;;4971163;28;20053;-65
2023/11/04 09:59:54;;;;;;;0.10;0.10;;;12.50;99.90;;;;;;4991313;28;20030;-65
2023/11/04 10:02:19;;;;;;;0.40;0.35;;;12.40;99.90;;;;;;4991606;28;20562;-64
2023/11/04 10:04:45;;;;;;;0.10;0.10;;;12.70;99.90;;;;;;5008493;28;20496;-64
2023/11/04 10:07:11;;;;;;;1.23;0.20;;;12.40;99.90;;;;;;5012073;28;20034;-64
2023/11/04 10:09:37;;;;;;;0.00;0.00;;;11.80;99.90;;;;;;5008457;28;20041;-65
2023/11/04 10:12:03;;;;;;;4.60;0.30;;;11.60;99.90;;;;;;5009448;28;20497;-64
2023/11/04 10:14:33;;;;;;;0.73;0.10;;;11.50;99.90;;;;;;4991240;28;20030;-65
2023/11/04 10:16:59;;;;;;;0.20;0.17;;;11.40;99.90;;;;;;4994517;28;20143;-65
2023/11/04 10:19:26;;;;;;;0.10;0.10;;;11.30;99.90;;;;;;4991049;28;20034;-65
2023/11/04 10:21:53;;;;;;;1.45;0.32;;;11.30;99.90;;;;;;4991101;28;20087;-64
2023/11/04 10:24:19;;;;;;;0.20;0.20;;;11.30;99.90;;;;;;5008858;28;20088;-64
2023/11/04 10:26:45;;;;;;;0.38;0.25;;;11.30;99.90;;;;;;5007553;28;20033;-63
2023/11/04 10:29:10;;;;;;;0.22;0.10;;;11.30;99.90;;;;;;5008135;28;20517;-64
2023/11/04 10:31:38;;;;;;;0.20;0.20;;;11.20;99.90;;;;;;5010268;28;20033;-63
2023/11/04 10:34:06;;;;;;;0.13;0.13;;;11.10;99.90;;;;;;5010234;28;20113;-63
2023/11/04 10:36:32;;;;;;;0.30;0.28;;;11.00;99.90;;;;;;4993175;28;20121;-64
2023/11/04 10:39:04;;;;;;;0.28;0.08;;;11.00;99.90;;;;;;4988763;28;20045;-64
2023/11/04 10:41:53;;;;;;;0.50;0.30;;;11.00;99.90;;;;;;4993096;28;20079;-64
2023/11/04 10:44:29;;;;;;;0.60;0.20;;;11.00;99.90;;;;;;4995164;28;20398;-63
2023/11/04 10:47:16;;;;;;;0.10;0.10;;;11.10;99.90;;;;;;4992957;28;20191;-64
2023/11/04 10:50:06;;;;;;;0.00;0.00;;;11.20;99.90;;;;;;5009667;28;20383;-65
2023/11/04 10:52:38;;;;;;;3.47;0.20;;;11.10;99.90;;;;;;5010311;28;20487;-64
2023/11/04 10:55:14;;;;;;;0.30;0.30;;;11.00;99.90;;;;;;4992820;28;20615;-64
2023/11/04 10:57:44;;;;;;;1.45;0.15;;;10.90;99.90;;;;;;4975660;28;20081;-64
2023/11/04 11:00:23;;;;;;;0.45;0.22;;;10.90;99.90;;;;;;5009834;28;20132;-65
2023/11/04 11:02:51;;;;;;;0.00;0.00;;;10.80;99.90;;;;;;5010569;28;20823;-65
2023/11/04 11:05:24;;;;;;;0.43;0.35;;;10.80;99.90;;;;;;4993035;28;20049;-66
2023/11/04 11:07:50;;;;;;;0.57;0.30;;;10.80;99.90;;;;;;4985517;28;20445;-67
2023/11/04 11:10:25;;;;;;;1.02;0.20;;;10.80;99.90;;;;;;5010687;28;20033;-69
2023/11/04 11:13:19;;;;;;;0.10;0.10;;;10.80;99.90;;;;;;5002813;28;20084;-68
2023/11/04 11:15:46;;;;;;;0.20;0.20;;;10.70;99.90;;;;;;5009453;28;20034;-66
2023/11/04 11:18:12;;;;;;;0.75;0.10;;;10.80;99.90;;;;;;4992842;28;20072;-66
2023/11/04 11:20:38;;;;;;;0.52;0.20;;;10.80;99.90;;;;;;5009485;28;20063;-66
2023/11/04 11:23:08;;;;;;;0.20;0.20;;;10.80;99.90;;;;;;4992655;28;20371;-66
2023/11/04 11:25:37;;;;;;;0.95;0.63;;;10.80;99.90;;;;;;4985347;28;20393;-67
2023/11/04 11:28:26;;;;;;;0.10;0.10;;;10.80;99.90;;;;;;5009766;28;20030;-66
2023/11/04 11:30:57;;;;;;;0.63;0.28;;;10.90;99.90;;;;;;5009280;28;20117;-66
2023/11/04 11:33:27;;;;;;;0.10;0.10;;;10.90;99.90;;;;;;4993359;28;20042;-67
2023/11/04 11:35:59;;;;;;;0.98;0.50;;;10.90;99.90;;;;;;5009756;28;20671;-66
2023/11/04 11:38:33;;;;;;;0.98;0.68;;;11.00;99.90;;;;;;5010312;28;20034;-66
2023/11/04 11:41:06;;;;;;;0.82;0.40;;;11.00;99.90;;;;;;5003682;28;20382;-66
2023/11/04 11:43:33;;;;;;;2.42;0.32;;;10.90;99.90;;;;;;5009444;28;20030;-67
2023/11/04 11:45:59;;;;;;;0.03;0.03;;;11.00;99.90;;;;;;4992527;28;20026;-66
2023/11/04 11:48:26;;;;;;;1.35;0.50;;;11.00;99.90;;;;;;4996951;28;20038;-65
2023/11/04 11:50:52;;;;;;;0.10;0.10;;;11.10;99.90;;;;;;4993971;28;20375;-65
2023/11/04 11:53:20;;;;;;;0.10;0.10;;;11.20;99.90;;;;;;5015844;28;20611;-66
2023/11/04 11:55:57;;;;;;;1.33;0.57;;;11.30;99.90;;;;;;4995537;28;20030;-65
2023/11/04 11:58:25;;;;;;;0.00;0.00;;;11.30;99.90;;;;;;4996444;28;20108;-65
2023/11/04 12:00:51;;;;;;;0.00;0.00;;;11.40;99.90;;;;;;4996053;28;20037;-65
2023/11/04 12:03:17;;;;;;;0.17;0.15;;;11.50;99.90;;;;;;5014904;28;20030;-69
2023/11/04 12:05:44;;;;;;;0.13;0.10;;;11.80;99.90;;;;;;5014091;28;20091;-67
2023/11/04 12:08:10;;;;;;;3.90;0.50;;;11.90;99.90;;;;;;5018505;28;20033;-67
2023/11/04 12:10:37;;;;;;;0.10;0.10;;;12.10;99.90;;;;;;4997858;28;20080;-75
2023/11/04 12:13:03;;;;;;;2.13;0.35;;;11.90;99.90;;;;;;4998587;28;20034;-79
2023/11/04 12:15:32;;;;;;;0.45;0.45;;;11.80;99.90;;;;;;5001887;28;20383;-79
2023/11/04 12:18:02;;;;;;;0.32;0.32;;;11.70;99.90;;;;;;5020458;28;20086;-77
2023/11/04 12:20:29;;;;;;;1.67;0.52;;;11.70;99.90;;;;;;4979793;28;20038;-77
2023/11/04 12:23:00;;;;;;;0.17;0.17;;;11.60;99.90;;;;;;4999504;28;20018;-77
2023/11/04 12:25:26;;;;;;;0.17;0.17;;;11.60;99.90;;;;;;4998925;28;20042;-75
2023/11/04 12:27:52;;;;;;;1.08;0.43;;;11.60;99.90;;;;;;4979982;28;20369;-76
2023/11/04 12:30:20;;;;;;;0.63;0.35;;;11.60;99.90;;;;;;4995699;28;20038;-77
2023/11/04 12:32:50;;;;;;;0.00;0.00;;;11.50;99.90;;;;;;5003480;28;20030;-78
2023/11/04 12:35:20;;;;;;;0.32;0.30;;;11.60;99.90;;;;;;5005122;28;20033;-79
2023/11/04 12:37:55;;;;;;;0.40;0.30;;;11.50;99.90;;;;;;5022861;28;20026;-77
2023/11/04 12:40:26;;;;;;;0.32;0.22;;;11.40;99.90;;;;;;5004778;28;20621;-74
2023/11/04 12:42:52;;;;;;;0.88;0.60;;;11.30;99.90;;;;;;5027319;28;20045;-74
2023/11/04 12:45:17;;;;;;;1.10;0.68;;;11.30;99.90;;;;;;5038746;28;20105;-77
2023/11/04 12:47:44;;;;;;;0.10;0.10;;;11.20;99.90;;;;;;5027119;28;20061;-75
2023/11/04 12:50:14;;;;;;;0.35;0.32;;;11.20;99.90;;;;;;5013407;28;20113;-77
2023/11/04 12:52:44;;;;;;;0.10;0.10;;;11.00;99.90;;;;;;5011531;28;20091;-72
2023/11/04 12:55:11;;;;;;;0.10;0.10;;;11.00;99.90;;;;;;4992840;28;20084;-73